Time;durP1;ratioP1;P1;durP2;ratioP2;P2;SDS_P1;SDS_P2;PMS_P1;PMS_P2;Temp;Humidity;BMP_temperature;BMP_pressure;BME280_temperature;BME280_humidity;BME280_pressure;Samples;Min_cycle;Max_cycle;Signal;HPM_P1;HPM_P2
2022/03/21 00:01:32;;;;;;;29.20;16.20;;;;;;;-3.11;55.28;103391.52;106902;1253;62110;-65
2022/03/21 00:04:01;;;;;;;35.70;18.30;;;;;;;-3.17;55.41;103394.61;106953;1253;59459;-64
2022/03/21 00:06:30;;;;;;;34.10;15.90;;;;;;;-3.20;55.33;103390.24;106968;1253;72414;-65
2022/03/21 00:08:59;;;;;;;22.20;12.20;;;;;;;-3.28;52.56;103388.34;106924;1253;71369;-64
2022/03/21 00:11:28;;;;;;;29.10;15.80;;;;;;;-3.30;53.30;103389.11;106982;1253;68163;-64
2022/03/21 00:13:57;;;;;;;30.30;16.40;;;;;;;-3.31;52.62;103391.81;106998;1253;71730;-64
2022/03/21 00:16:27;;;;;;;31.70;17.20;;;;;;;-3.30;54.88;103390.81;106913;1253;59793;-65
2022/03/21 00:18:56;;;;;;;28.50;17.10;;;;;;;-3.30;55.08;103392.54;106893;1253;59768;-64
2022/03/21 00:21:26;;;;;;;31.00;17.00;;;;;;;-3.35;55.23;103392.23;106925;1253;71967;-65
2022/03/21 00:23:55;;;;;;;30.20;17.50;;;;;;;-3.38;56.33;103397.09;106852;1253;72309;-65
2022/03/21 00:26:24;;;;;;;31.90;18.00;;;;;;;-3.41;56.33;103395.09;106813;1253;71581;-65
2022/03/21 00:28:53;;;;;;;31.20;18.10;;;;;;;-3.41;57.49;103394.44;106673;1253;73089;-65
2022/03/21 00:31:24;;;;;;;35.40;16.70;;;;;;;-3.45;56.28;103393.30;106840;1253;61577;-64
2022/03/21 00:33:55;;;;;;;31.40;17.10;;;;;;;-3.47;56.95;103391.36;106743;1254;60802;-65
2022/03/21 00:36:24;;;;;;;32.20;16.70;;;;;;;-3.53;56.14;103392.05;106836;1253;71408;-65
2022/03/21 00:39:13;;;;;;;30.90;17.10;;;;;;;-3.56;57.25;103393.17;106822;1253;71678;-64
2022/03/21 00:41:42;;;;;;;34.10;17.70;;;;;;;-3.59;56.46;103391.89;106756;1253;71154;-64
2022/03/21 00:44:11;;;;;;;32.50;17.00;;;;;;;-3.64;57.27;103388.16;106749;1253;72334;-64
2022/03/21 00:46:40;;;;;;;31.70;17.90;;;;;;;-3.70;58.01;103380.80;106784;1253;60032;-65
2022/03/21 00:49:12;;;;;;;28.50;16.30;;;;;;;-3.75;57.74;103379.50;106655;1253;59144;-65
2022/03/21 00:51:41;;;;;;;28.80;17.20;;;;;;;-3.80;57.61;103382.42;106876;1253;74051;-64
2022/03/21 00:54:09;;;;;;;34.30;18.60;;;;;;;-3.86;56.53;103378.48;106826;1253;70940;-64
2022/03/21 00:56:38;;;;;;;33.70;17.40;;;;;;;-3.90;57.93;103376.47;106708;1253;70984;-64
2022/03/21 00:59:08;;;;;;;32.90;18.10;;;;;;;-3.94;57.94;103373.11;106817;1253;75022;-66
2022/03/21 01:01:37;;;;;;;31.30;17.40;;;;;;;-4.00;58.56;103373.64;106886;1253;61948;-64
2022/03/21 01:04:06;;;;;;;34.10;18.90;;;;;;;-4.05;59.25;103376.90;106847;1254;61072;-64
2022/03/21 01:06:35;;;;;;;34.80;18.70;;;;;;;-4.09;58.99;103373.20;106882;1253;73926;-65
2022/03/21 01:09:04;;;;;;;31.30;17.80;;;;;;;-4.15;59.41;103371.98;106990;1253;69966;-63
2022/03/21 01:11:34;;;;;;;33.10;17.30;;;;;;;-4.21;59.19;103372.82;106781;1255;68888;-64
2022/03/21 01:14:03;;;;;;;31.70;17.90;;;;;;;-4.25;59.25;103369.13;106747;1254;72020;-64
2022/03/21 01:16:32;;;;;;;27.90;16.40;;;;;;;-4.29;59.25;103371.55;106911;1253;59077;-64
2022/03/21 01:19:01;;;;;;;31.40;16.80;;;;;;;-4.36;59.86;103374.56;106941;1253;59914;-64
2022/03/21 01:21:31;;;;;;;30.80;18.30;;;;;;;-4.42;60.07;103372.67;106982;1253;73623;-64
2022/03/21 01:24:00;;;;;;;31.80;17.60;;;;;;;-4.48;60.31;103368.89;106951;1253;72286;-65
2022/03/21 01:26:29;;;;;;;35.60;18.40;;;;;;;-4.55;60.21;103372.92;106998;1253;69111;-65
2022/03/21 01:28:58;;;;;;;42.20;21.70;;;;;;;-4.56;60.54;103365.56;106987;1253;71915;-65
2022/03/21 01:31:27;;;;;;;37.70;19.60;;;;;;;-4.56;60.35;103366.27;106908;1254;60674;-65
2022/03/21 01:33:56;;;;;;;35.20;19.20;;;;;;;-4.57;61.10;103361.98;106975;1253;59768;-64
2022/03/21 01:36:25;;;;;;;37.40;19.70;;;;;;;-4.56;60.63;103358.10;106929;1253;71969;-66
2022/03/21 01:38:54;;;;;;;34.50;18.20;;;;;;;-4.56;59.95;103359.30;106959;1253;71357;-66
2022/03/21 01:41:23;;;;;;;37.10;18.40;;;;;;;-4.55;60.15;103358.48;106962;1253;68728;-65
2022/03/21 01:44:05;;;;;;;34.80;18.10;;;;;;;-4.58;59.32;103363.84;106737;1253;72744;-65
2022/03/21 01:46:36;;;;;;;32.30;18.20;;;;;;;-4.61;59.55;103363.04;106952;1253;60646;-65
2022/03/21 01:49:08;;;;;;;32.80;17.20;;;;;;;-4.62;60.51;103363.84;106919;1253;59132;-67
2022/03/21 01:51:40;;;;;;;32.00;17.20;;;;;;;-4.62;60.35;103362.33;106944;1253;71706;-66
2022/03/21 01:56:58;;;;;;;36.60;17.90;;;;;;;-4.64;59.11;103369.73;106925;1253;71315;-65
2022/03/21 01:59:27;;;;;;;36.50;18.50;;;;;;;-4.67;60.55;103366.73;106890;1253;72737;-64
2022/03/21 02:01:57;;;;;;;25.00;11.80;;;;;;;-4.71;60.34;103367.63;106820;1254;61663;-65
2022/03/21 02:04:26;;;;;;;30.80;17.40;;;;;;;-4.78;59.53;103372.84;106738;1254;60216;-65
2022/03/21 02:06:56;;;;;;;34.30;18.10;;;;;;;-4.82;61.19;103378.00;108273;1254;71010;-63
2022/03/21 02:09:26;;;;;;;28.60;17.10;;;;;;;-4.81;61.01;103380.06;106916;1253;72705;-64
2022/03/21 02:11:57;;;;;;;29.30;17.10;;;;;;;-4.82;60.95;103372.74;106884;1254;69523;-63
2022/03/21 02:14:26;;;;;;;29.60;17.80;;;;;;;-4.82;60.97;103375.44;106873;1253;73880;-64
2022/03/21 02:16:55;;;;;;;28.60;16.70;;;;;;;-4.85;60.41;103376.34;106812;1253;62580;-64
2022/03/21 02:19:30;;;;;;;37.60;18.20;;;;;;;-4.89;59.82;103378.25;106884;1253;62077;-65
2022/03/21 02:22:14;;;;;;;34.10;18.20;;;;;;;-4.93;60.56;103375.59;106937;1253;73491;-64
2022/03/21 02:24:43;;;;;;;31.30;17.60;;;;;;;-4.95;60.52;103381.77;106934;1253;70970;-64
2022/03/21 02:27:13;;;;;;;37.10;17.80;;;;;;;-4.95;61.05;103380.74;106884;1253;70970;-65
2022/03/21 02:29:44;;;;;;;39.40;18.40;;;;;;;-4.96;61.69;103378.02;106813;1254;74708;-65
2022/03/21 02:32:14;;;;;;;34.70;17.60;;;;;;;-4.97;62.46;103376.98;106978;1253;60152;-64
2022/03/21 02:34:45;;;;;;;33.80;19.60;;;;;;;-4.98;62.84;103380.51;106757;1253;61696;-65
2022/03/21 02:37:18;;;;;;;33.30;18.40;;;;;;;-5.06;62.18;103380.22;106882;1253;73808;-65
2022/03/21 02:39:49;;;;;;;32.40;18.20;;;;;;;-5.15;62.82;103377.34;106909;1253;72935;-65
2022/03/21 02:42:18;;;;;;;33.70;17.80;;;;;;;-5.26;62.34;103376.80;106874;1253;69232;-64
2022/03/21 02:44:47;;;;;;;29.10;15.90;;;;;;;-5.41;63.88;103376.27;107013;1253;71586;-62
2022/03/21 02:47:16;;;;;;;34.60;16.90;;;;;;;-5.49;62.90;103372.77;106820;1256;60606;-67
2022/03/21 02:49:45;;;;;;;30.70;17.20;;;;;;;-5.52;62.56;103378.41;106956;1253;58955;-65
2022/03/21 02:52:16;;;;;;;31.80;17.30;;;;;;;-5.56;61.77;103376.92;106944;1253;71727;-65
2022/03/21 02:54:45;;;;;;;33.90;17.30;;;;;;;-5.59;61.71;103377.63;106915;1254;70686;-65
2022/03/21 02:57:14;;;;;;;29.40;17.60;;;;;;;-5.67;61.58;103381.60;107185;1253;69134;-65
2022/03/21 02:59:43;;;;;;;33.00;18.20;;;;;;;-5.76;60.26;103381.94;107071;1253;73602;-66
2022/03/21 03:02:12;;;;;;;29.00;14.80;;;;;;;-5.80;62.04;103385.70;106927;1253;61696;-66
2022/03/21 03:04:41;;;;;;;34.20;18.10;;;;;;;-5.76;63.04;103384.83;106983;1253;61042;-65
2022/03/21 03:07:11;;;;;;;34.60;17.40;;;;;;;-5.74;61.39;103388.10;107014;1253;72973;-64
2022/03/21 03:09:42;;;;;;;31.90;16.20;;;;;;;-5.73;62.02;103385.09;106998;1253;70382;-64
2022/03/21 03:12:11;;;;;;;30.40;18.40;;;;;;;-5.74;62.76;103380.30;106991;1253;70627;-64
2022/03/21 03:14:41;;;;;;;32.40;16.30;;;;;;;-5.76;63.77;103382.29;106963;1253;74480;-65
2022/03/21 03:17:10;;;;;;;34.50;17.50;;;;;;;-5.75;64.23;103382.65;107030;1253;60969;-64
2022/03/21 03:19:39;;;;;;;36.60;17.80;;;;;;;-5.72;63.55;103387.02;106974;1253;59230;-65
2022/03/21 03:22:09;;;;;;;31.30;17.80;;;;;;;-5.69;63.57;103380.17;106860;1253;72315;-65
2022/03/21 03:24:38;;;;;;;35.90;18.00;;;;;;;-5.64;64.02;103378.49;106782;1253;70292;-65
2022/03/21 03:27:07;;;;;;;33.70;18.00;;;;;;;-5.61;63.46;103379.12;106772;1253;71969;-64
2022/03/21 03:29:36;;;;;;;32.00;17.50;;;;;;;-5.61;63.66;103382.50;106789;1253;75054;-64
2022/03/21 03:32:06;;;;;;;36.10;17.70;;;;;;;-5.65;62.21;103378.61;106554;1255;59556;-62
2022/03/21 03:34:35;;;;;;;35.70;19.00;;;;;;;-5.70;62.30;103377.76;106822;1253;59691;-64
2022/03/21 03:37:04;;;;;;;33.20;17.90;;;;;;;-5.76;64.01;103379.23;106639;1255;72609;-65
2022/03/21 03:39:33;;;;;;;36.50;17.60;;;;;;;-5.82;62.39;103379.14;106735;1255;71610;-65
2022/03/21 03:42:03;;;;;;;33.60;19.10;;;;;;;-5.89;62.22;103376.86;106740;1253;71605;-65
2022/03/21 03:44:32;;;;;;;34.50;17.50;;;;;;;-5.96;61.81;103381.05;106889;1250;71733;-65
2022/03/21 03:47:01;;;;;;;33.10;16.50;;;;;;;-5.99;64.30;103380.91;106524;1253;62863;-66
2022/03/21 03:49:30;;;;;;;34.40;17.80;;;;;;;-5.96;65.43;103384.61;106731;1253;61629;-65
2022/03/21 03:51:59;;;;;;;35.60;19.20;;;;;;;-5.92;65.21;103381.69;106786;1253;74820;-63
2022/03/21 03:54:28;;;;;;;41.40;19.90;;;;;;;-5.90;65.17;103384.65;106730;1253;71372;-65
2022/03/21 03:56:57;;;;;;;41.60;20.70;;;;;;;-5.85;65.06;103383.14;106605;1256;69179;-64
2022/03/21 03:59:26;;;;;;;39.90;19.30;;;;;;;-5.81;64.93;103381.05;106718;1253;72239;-67
2022/03/21 04:01:55;;;;;;;41.20;20.40;;;;;;;-5.83;64.03;103379.83;106757;1253;59014;-63
2022/03/21 04:04:24;;;;;;;45.40;21.80;;;;;;;-5.81;65.37;103384.30;106799;1253;58937;-64
2022/03/21 04:06:53;;;;;;;50.50;23.80;;;;;;;-5.75;65.39;103378.39;106770;1255;72105;-62
2022/03/21 04:09:22;;;;;;;50.50;23.70;;;;;;;-5.78;64.93;103380.15;106748;1254;70798;-62
2022/03/21 04:11:51;;;;;;;43.80;22.20;;;;;;;-5.81;65.34;103378.18;106653;1255;68638;-64
2022/03/21 04:14:20;;;;;;;46.60;22.40;;;;;;;-5.83;65.39;103374.38;106730;1254;71237;-66
2022/03/21 04:16:49;;;;;;;52.10;24.50;;;;;;;-5.85;65.31;103372.77;106734;1254;63021;-66
2022/03/21 04:19:18;;;;;;;54.70;27.50;;;;;;;-5.83;65.22;103375.20;106801;1254;61681;-66
2022/03/21 04:21:47;;;;;;;53.00;27.30;;;;;;;-5.79;65.07;103378.23;106680;1255;72163;-66
2022/03/21 04:24:16;;;;;;;48.00;26.60;;;;;;;-5.78;65.65;103367.27;106993;1253;70393;-63
2022/03/21 04:26:45;;;;;;;46.40;24.20;;;;;;;-5.78;65.28;103368.81;107060;1251;69115;-63
2022/03/21 04:29:14;;;;;;;41.40;22.30;;;;;;;-5.76;65.46;103374.81;107014;1251;72680;-65
2022/03/21 04:31:43;;;;;;;41.80;22.90;;;;;;;-5.77;65.20;103373.93;107077;1252;61145;-67
2022/03/21 04:34:12;;;;;;;36.90;21.30;;;;;;;-5.76;66.14;103371.90;107168;1251;60059;-64
2022/03/21 04:36:42;;;;;;;39.20;21.00;;;;;;;-5.75;64.71;103377.72;106973;1253;73109;-65
2022/03/21 04:39:11;;;;;;;41.30;20.70;;;;;;;-5.76;63.94;103377.19;107190;1253;72348;-65
2022/03/21 04:41:40;;;;;;;47.60;22.60;;;;;;;-5.74;65.03;103379.82;107069;1253;68374;-66
2022/03/21 04:44:09;;;;;;;38.70;20.60;;;;;;;-5.72;65.16;103375.30;107117;1251;72417;-65
2022/03/21 04:46:38;;;;;;;36.60;20.10;;;;;;;-5.66;64.78;103373.82;107093;1251;59720;-64
2022/03/21 04:49:07;;;;;;;41.50;20.70;;;;;;;-5.58;64.87;103376.16;107185;1251;60235;-67
2022/03/21 04:51:36;;;;;;;38.30;20.30;;;;;;;-5.53;64.43;103381.09;107008;1253;72639;-65
2022/03/21 04:54:05;;;;;;;36.10;19.70;;;;;;;-5.55;64.57;103362.52;106966;1253;70491;-66
2022/03/21 04:56:35;;;;;;;40.50;21.60;;;;;;;-5.43;64.45;103372.95;107083;1253;69125;-65
2022/03/21 04:59:03;;;;;;;35.00;20.40;;;;;;;-5.34;64.55;103374.13;107120;1251;75015;-73
2022/03/21 05:01:33;;;;;;;43.40;23.00;;;;;;;-5.29;64.15;103378.56;107135;1253;60592;-70
2022/03/21 05:04:03;;;;;;;38.60;19.90;;;;;;;-5.26;64.47;103377.64;107152;1252;59663;-68
2022/03/21 05:06:33;;;;;;;40.80;21.80;;;;;;;-5.20;63.63;103380.91;107141;1251;72792;-67
2022/03/21 05:09:03;;;;;;;40.20;19.70;;;;;;;-5.13;63.57;103384.58;107104;1251;71705;-69
2022/03/21 05:11:32;;;;;;;38.40;20.40;;;;;;;-5.08;62.22;103384.57;107080;1253;69255;-72
2022/03/21 05:14:02;;;;;;;45.60;22.30;;;;;;;-5.01;61.59;103387.17;106917;1254;72450;-73
2022/03/21 05:16:32;;;;;;;42.20;21.00;;;;;;;-4.94;62.17;103385.92;107126;1251;59691;-71
2022/03/21 05:19:02;;;;;;;39.70;20.70;;;;;;;-4.85;62.20;103380.60;107115;1251;61131;-64
2022/03/21 05:21:31;;;;;;;37.60;20.70;;;;;;;-4.72;61.63;103385.80;107212;1251;72678;-65
2022/03/21 05:32:23;;;;;;;43.50;20.00;;;;;;;-4.29;60.20;103384.98;106810;1253;59791;-65
2022/03/21 05:37:40;;;;;;;39.90;17.60;;;;;;;-4.09;59.16;103390.39;107284;1251;70922;-64
2022/03/21 05:42:58;;;;;;;40.70;22.00;;;;;;;-3.87;58.66;103398.37;107277;1251;70949;-64
2022/03/21 05:45:28;;;;;;;37.40;19.00;;;;;;;-3.74;58.33;103395.19;107431;1249;74279;-64
2022/03/21 05:50:44;;;;;;;38.30;21.70;;;;;;;-3.50;57.92;103397.45;107192;1251;60027;-66
2022/03/21 05:53:14;;;;;;;40.10;20.50;;;;;;;-3.37;57.77;103398.98;107241;1253;71702;-65
2022/03/21 05:55:45;;;;;;;43.40;22.20;;;;;;;-3.20;57.37;103405.08;107184;1251;70338;-66
2022/03/21 05:58:14;;;;;;;36.80;19.50;;;;;;;-3.04;57.03;103406.36;107235;1253;69708;-65
2022/03/21 06:00:43;;;;;;;34.20;19.50;;;;;;;-2.91;56.56;103404.66;107181;1251;72597;-63
2022/03/21 06:03:12;;;;;;;33.70;16.80;;;;;;;-2.76;56.71;103405.24;107087;1253;59109;-62
2022/03/21 06:05:44;;;;;;;35.70;17.50;;;;;;;-2.59;56.48;103408.75;106937;1253;60343;-65
2022/03/21 06:08:13;;;;;;;34.50;17.60;;;;;;;-2.41;56.71;103401.00;107099;1252;72151;-65
2022/03/21 06:10:42;;;;;;;30.30;14.90;;;;;;;-2.23;56.93;103400.41;107044;1253;70178;-64
2022/03/21 06:13:12;;;;;;;34.30;17.00;;;;;;;-2.03;56.31;103402.05;107133;1253;71763;-66
2022/03/21 06:15:42;;;;;;;36.50;18.30;;;;;;;-1.91;55.97;103406.77;107095;1251;72502;-65
2022/03/21 06:18:12;;;;;;;29.20;17.20;;;;;;;-1.79;55.65;103409.27;107027;1251;61620;-64
2022/03/21 06:20:42;;;;;;;19.50;10.00;;;;;;;-1.58;54.42;103407.81;107030;1253;61844;-64
2022/03/21 06:23:11;;;;;;;28.30;13.00;;;;;;;-1.40;53.92;103407.67;106926;1251;74372;-64
2022/03/21 06:25:40;;;;;;;25.60;13.20;;;;;;;-1.28;53.61;103406.56;106878;1252;70912;-66
2022/03/21 06:28:09;;;;;;;22.20;12.30;;;;;;;-1.12;53.76;103407.37;106901;1253;67167;-67
2022/03/21 06:30:39;;;;;;;26.30;14.40;;;;;;;-0.99;53.36;103408.32;106926;1253;74137;-65
2022/03/21 06:33:10;;;;;;;22.10;10.70;;;;;;;-0.88;52.95;103399.61;106945;1254;59095;-66
2022/03/21 06:35:39;;;;;;;26.70;15.70;;;;;;;-0.77;52.86;103405.63;106850;1254;60017;-64
2022/03/21 06:38:10;;;;;;;30.20;15.00;;;;;;;-0.65;52.99;103409.60;106782;1255;72992;-63
2022/03/21 06:40:41;;;;;;;29.50;16.50;;;;;;;-0.45;52.58;103398.98;106498;1251;663873;-65
2022/03/21 06:43:11;;;;;;;19.00;9.60;;;;;;;-0.29;52.38;103389.99;106815;1253;69328;-67
2022/03/21 06:45:40;;;;;;;24.50;13.60;;;;;;;-0.17;51.91;103389.15;106932;1251;72411;-65
2022/03/21 06:48:10;;;;;;;37.10;20.40;;;;;;;-0.09;51.45;103388.92;106902;1251;60403;-65
2022/03/21 06:50:39;;;;;;;24.10;14.70;;;;;;;0.05;51.63;103386.21;106983;1253;60196;-65
2022/03/21 06:53:08;;;;;;;28.80;12.80;;;;;;;0.28;50.93;103385.98;107021;1251;73259;-66
2022/03/21 06:55:37;;;;;;;20.10;11.70;;;;;;;0.48;50.13;103381.80;106767;1253;73437;-70
2022/03/21 06:58:11;;;;;;;26.00;15.10;;;;;;;0.62;49.91;103388.31;107155;1253;68980;-64
2022/03/21 07:00:42;;;;;;;31.50;16.80;;;;;;;0.79;49.21;103389.88;107132;1253;71210;-66
2022/03/21 07:03:16;;;;;;;44.10;18.90;;;;;;;0.92;49.11;103383.66;107037;1253;59574;-67
2022/03/21 07:05:46;;;;;;;38.10;18.10;;;;;;;1.09;48.40;103375.95;107035;1252;61064;-66
2022/03/21 07:08:15;;;;;;;23.90;15.20;;;;;;;1.24;48.43;103368.02;107073;1253;71028;-64
2022/03/21 07:10:44;;;;;;;36.80;20.60;;;;;;;1.41;47.92;103367.47;106890;1253;71302;-65
2022/03/21 07:13:13;;;;;;;34.60;20.00;;;;;;;1.59;47.81;103377.23;107095;1253;67877;-64
2022/03/21 07:15:42;;;;;;;34.00;18.60;;;;;;;1.77;47.77;103376.16;107045;1254;71431;-64
2022/03/21 07:18:11;;;;;;;31.30;16.20;;;;;;;1.97;47.52;103376.12;107038;1251;58952;-65
2022/03/21 07:20:43;;;;;;;31.90;18.00;;;;;;;2.14;47.07;103362.46;107076;1251;59058;-65
2022/03/21 07:23:12;;;;;;;25.60;14.80;;;;;;;2.32;47.29;103359.44;107085;1253;74535;-65
2022/03/21 07:25:41;;;;;;;26.90;15.90;;;;;;;2.54;45.84;103356.27;107234;1254;72967;-67
2022/03/21 07:28:09;;;;;;;35.00;18.50;;;;;;;2.72;45.62;103356.30;107176;1251;71373;-64
2022/03/21 07:30:38;;;;;;;30.20;17.60;;;;;;;2.90;45.84;103345.52;107139;1250;74640;-68
2022/03/21 07:33:08;;;;;;;28.80;15.00;;;;;;;3.12;45.29;103348.10;106922;1251;60174;-66
2022/03/21 07:35:37;;;;;;;30.00;16.20;;;;;;;3.38;43.43;103349.16;106921;1251;60830;-68
2022/03/21 07:38:07;;;;;;;26.90;16.00;;;;;;;3.63;42.42;103353.45;106963;1251;73374;-64
2022/03/21 07:40:37;;;;;;;32.80;16.30;;;;;;;3.79;42.89;103346.17;107087;1251;71772;-68
2022/03/21 07:43:06;;;;;;;28.40;13.90;;;;;;;3.92;42.37;103345.45;107061;1251;70409;-66
2022/03/21 07:48:23;;;;;;;28.80;16.80;;;;;;;4.20;41.68;103349.84;107144;1251;59781;-66
2022/03/21 07:50:52;;;;;;;26.90;15.10;;;;;;;4.38;40.96;103350.98;107112;1251;59328;-66
2022/03/21 07:53:21;;;;;;;23.90;14.50;;;;;;;4.53;41.09;103343.84;107066;1253;72181;-66
2022/03/21 07:55:50;;;;;;;27.10;15.00;;;;;;;4.68;40.31;103341.16;107105;1251;73437;-66
2022/03/21 07:58:19;;;;;;;21.70;13.70;;;;;;;4.89;41.00;103340.85;107154;1250;70970;-65
2022/03/21 08:00:48;;;;;;;28.60;16.90;;;;;;;5.07;39.50;103336.92;106899;1254;75459;-66
2022/03/21 08:03:18;;;;;;;28.70;16.70;;;;;;;5.20;38.82;103332.67;107091;1251;60566;-65
2022/03/21 08:05:47;;;;;;;27.20;14.90;;;;;;;5.33;38.47;103329.30;107042;1251;61853;-63
2022/03/21 08:08:16;;;;;;;32.90;16.60;;;;;;;5.42;38.14;103334.05;107055;1251;74624;-64
2022/03/21 08:10:47;;;;;;;26.80;17.30;;;;;;;5.50;37.35;103332.59;107178;1250;72587;-65
2022/03/21 08:13:19;;;;;;;26.70;16.70;;;;;;;5.62;37.33;103330.92;107170;1250;72063;-64
2022/03/21 08:15:48;;;;;;;26.40;15.70;;;;;;;5.76;37.08;103323.86;107181;1250;73404;-65
2022/03/21 08:18:17;;;;;;;28.00;15.20;;;;;;;5.87;36.95;103327.54;106964;1253;59044;-67
2022/03/21 08:20:46;;;;;;;22.90;12.90;;;;;;;5.99;37.03;103321.39;107129;1253;59887;-67
2022/03/21 08:23:15;;;;;;;24.10;15.30;;;;;;;6.10;35.43;103312.77;106891;1254;73858;-67
2022/03/21 08:25:46;;;;;;;25.10;16.40;;;;;;;6.15;35.85;103306.31;107316;1251;72431;-66
2022/03/21 08:28:15;;;;;;;26.60;16.60;;;;;;;6.27;35.89;103307.19;107244;1253;69599;-66
2022/03/21 08:30:44;;;;;;;28.00;15.70;;;;;;;6.37;35.44;103311.73;106994;1251;72326;-67
2022/03/21 08:33:13;;;;;;;25.50;15.50;;;;;;;6.47;35.85;103314.04;107272;1250;58894;-65
2022/03/21 08:35:42;;;;;;;24.50;17.10;;;;;;;6.53;35.49;103306.67;107263;1251;59583;-67
2022/03/21 08:38:11;;;;;;;24.20;15.70;;;;;;;6.62;34.95;103301.17;107199;1254;72450;-67
2022/03/21 08:40:40;;;;;;;25.80;15.90;;;;;;;6.76;34.43;103294.38;107052;1251;70435;-65
2022/03/21 08:43:09;;;;;;;28.90;16.90;;;;;;;6.77;33.96;103292.80;107186;1254;69097;-64
2022/03/21 08:45:40;;;;;;;28.20;16.70;;;;;;;6.90;34.04;103292.26;107204;1251;72895;-66
2022/03/21 08:48:09;;;;;;;28.80;17.20;;;;;;;6.98;34.00;103288.33;107218;1251;61215;-66
2022/03/21 08:50:38;;;;;;;28.70;17.00;;;;;;;7.01;34.04;103278.23;107240;1251;62047;-66
2022/03/21 08:53:08;;;;;;;28.50;13.70;;;;;;;7.02;34.26;103274.91;107204;1251;73047;-65
2022/03/21 08:55:37;;;;;;;28.90;17.80;;;;;;;7.21;34.09;103269.39;107226;1252;73135;-65
2022/03/21 08:58:06;;;;;;;29.60;16.70;;;;;;;7.32;33.73;103269.02;106937;1251;68890;-68
2022/03/21 09:00:35;;;;;;;30.20;17.40;;;;;;;7.49;33.71;103261.77;107032;1254;72401;-66
2022/03/21 09:03:04;;;;;;;28.90;17.10;;;;;;;7.60;33.51;103260.86;107055;1251;59616;-65
2022/03/21 09:05:33;;;;;;;28.90;17.20;;;;;;;7.83;33.16;103251.73;107160;1251;60420;-65
2022/03/21 09:08:02;;;;;;;25.40;16.40;;;;;;;8.08;33.30;103249.45;107001;1251;72019;-64
2022/03/21 09:10:31;;;;;;;28.80;17.00;;;;;;;8.30;32.66;103243.79;107082;1251;69537;-65
2022/03/21 09:13:00;;;;;;;27.60;17.50;;;;;;;8.46;32.44;103237.89;107016;1251;70449;-65
2022/03/21 09:15:29;;;;;;;30.70;17.30;;;;;;;8.62;31.22;103233.87;107038;1253;74752;-66
2022/03/21 09:18:00;;;;;;;27.30;15.20;;;;;;;8.71;31.58;103231.02;106969;1251;60452;-66
2022/03/21 09:20:30;;;;;;;26.90;17.00;;;;;;;8.80;30.67;103225.42;107106;1251;62668;-64
2022/03/21 09:22:59;;;;;;;30.00;17.30;;;;;;;8.90;30.77;103225.36;106962;1251;75113;-65
2022/03/21 09:25:28;;;;;;;29.30;17.90;;;;;;;9.00;30.44;103215.02;107053;1251;73174;-65
2022/03/21 09:27:57;;;;;;;29.30;16.80;;;;;;;9.10;30.57;103218.06;107087;1250;70878;-64
2022/03/21 09:30:26;;;;;;;27.50;16.30;;;;;;;9.15;30.40;103211.32;107070;1250;74768;-65
2022/03/21 09:32:55;;;;;;;30.10;17.90;;;;;;;9.24;30.77;103204.98;107034;1254;62215;-67
2022/03/21 09:35:24;;;;;;;30.80;17.50;;;;;;;9.39;30.45;103204.39;107110;1250;60147;-65
2022/03/21 09:37:53;;;;;;;28.30;18.20;;;;;;;9.66;29.63;103202.77;107098;1250;72563;-64
2022/03/21 09:40:24;;;;;;;27.90;16.70;;;;;;;9.89;28.50;103203.48;107145;1251;70663;-65
2022/03/21 09:42:53;;;;;;;32.30;18.00;;;;;;;9.97;29.00;103202.56;107197;1251;69491;-65
2022/03/21 09:45:27;;;;;;;26.70;18.40;;;;;;;10.03;28.90;103198.34;106916;1251;71527;-65
2022/03/21 09:48:10;;;;;;;27.90;16.90;;;;;;;10.08;28.88;103187.73;107040;1254;60531;-65
2022/03/21 09:50:50;;;;;;;;;;;;;;;10.26;28.58;103186.17;106972;1251;61381;-66
2022/03/21 09:53:19;;;;;;;21.80;15.20;;;;;;;10.32;28.33;103180.59;107060;1251;72504;-64
2022/03/21 09:55:48;;;;;;;15.00;10.80;;;;;;;10.40;27.13;103181.39;107144;1251;71962;-66
2022/03/21 09:58:20;;;;;;;18.80;11.40;;;;;;;10.52;26.40;103179.04;107156;1253;68692;-65
2022/03/21 10:00:50;;;;;;;15.50;10.00;;;;;;;10.65;26.01;103171.33;107210;1251;73985;-66
2022/03/21 10:03:20;;;;;;;17.00;9.90;;;;;;;10.80;25.41;103179.52;107191;1253;61255;-64
2022/03/21 10:05:50;;;;;;;18.60;9.70;;;;;;;10.86;25.45;103170.59;107218;1251;58799;-65
2022/03/21 10:08:24;;;;;;;13.00;7.50;;;;;;;10.83;24.42;103161.10;107263;1251;72057;-66
2022/03/21 10:11:04;;;;;;;11.70;7.00;;;;;;;10.96;24.23;103165.71;107124;1251;72227;-66
2022/03/21 10:13:38;;;;;;;10.90;7.10;;;;;;;11.04;23.56;103163.86;107153;1251;69092;-66
2022/03/21 10:16:13;;;;;;;9.20;6.60;;;;;;;11.05;22.84;103164.69;107040;1253;72797;-65
2022/03/21 10:18:57;;;;;;;13.00;7.90;;;;;;;11.13;23.07;103161.28;107077;1253;59550;-65
2022/03/21 10:21:30;;;;;;;16.20;9.10;;;;;;;11.10;23.37;103153.86;107056;1254;59069;-66
2022/03/21 10:24:07;;;;;;;12.20;6.80;;;;;;;11.13;23.02;103147.15;107083;1251;73569;-64
2022/03/21 10:26:42;;;;;;;12.60;8.00;;;;;;;11.23;22.80;103145.20;107105;1251;71288;-66
2022/03/21 10:29:17;;;;;;;9.10;6.60;;;;;;;11.33;23.26;103141.38;107144;1251;70141;-66
2022/03/21 10:31:52;;;;;;;14.40;9.40;;;;;;;11.58;23.25;103144.42;107208;1251;73881;-66
2022/03/21 10:34:29;;;;;;;17.70;10.70;;;;;;;11.70;23.19;103140.83;107210;1250;62742;-67
2022/03/21 10:37:05;;;;;;;15.60;9.40;;;;;;;11.82;23.37;103134.10;107235;1254;60579;-65
2022/03/21 10:39:38;;;;;;;13.80;9.40;;;;;;;12.20;23.37;103123.68;107262;1250;73938;-66
2022/03/21 10:42:10;;;;;;;18.50;10.90;;;;;;;12.38;22.92;103118.39;107063;1252;72241;-67
2022/03/21 10:44:39;;;;;;;16.80;10.80;;;;;;;12.48;23.13;103114.83;107178;1250;69152;-65
2022/03/21 10:47:09;;;;;;;16.10;10.80;;;;;;;12.68;22.93;103106.80;107174;1249;71169;-65
2022/03/21 10:49:46;;;;;;;16.60;10.80;;;;;;;13.10;22.89;103114.23;107224;1251;60357;-66
2022/03/21 10:52:22;;;;;;;17.10;10.80;;;;;;;13.32;22.23;103105.01;107243;1251;59859;-64
2022/03/21 10:54:53;;;;;;;17.10;10.30;;;;;;;13.56;22.11;103098.33;107016;1251;73602;-68
2022/03/21 10:57:38;;;;;;;16.90;10.10;;;;;;;13.37;21.88;103083.45;107226;1254;71280;-66
2022/03/21 11:00:24;;;;;;;15.70;10.70;;;;;;;13.43;21.91;103086.13;107229;1253;69649;-65
2022/03/21 11:03:09;;;;;;;14.30;9.60;;;;;;;13.80;21.41;103090.65;107368;1250;74935;-66
2022/03/21 11:05:46;;;;;;;17.70;11.00;;;;;;;13.91;21.38;103085.44;107214;1251;59330;-65
2022/03/21 11:08:18;;;;;;;18.00;10.40;;;;;;;13.57;21.72;103080.23;107341;1254;58932;-68
2022/03/21 11:10:48;;;;;;;17.10;10.80;;;;;;;13.47;21.74;103062.30;107214;1251;73651;-64
2022/03/21 11:13:20;;;;;;;14.30;9.30;;;;;;;13.52;21.71;103057.53;107387;1251;71335;-68
2022/03/21 11:15:52;;;;;;;15.00;10.10;;;;;;;13.74;21.44;103053.14;107468;1251;69102;-66
2022/03/21 11:18:21;;;;;;;14.70;9.50;;;;;;;13.61;21.57;103043.06;107300;1253;72365;-67
2022/03/21 11:20:52;;;;;;;16.70;9.20;;;;;;;14.21;21.18;103040.45;107400;1250;59397;-66
2022/03/21 11:23:21;;;;;;;15.10;9.80;;;;;;;14.34;20.86;103033.65;107284;1251;59510;-65
2022/03/21 11:26:01;;;;;;;13.40;9.00;;;;;;;14.47;20.66;103026.33;107228;1253;71487;-67
2022/03/21 11:28:58;;;;;;;12.00;8.40;;;;;;;14.65;20.84;103019.58;107073;1254;69780;-66
2022/03/21 11:32:24;;;;;;;12.00;8.20;;;;;;;14.78;20.04;103011.21;107241;1251;70206;-65
2022/03/21 11:35:15;;;;;;;14.10;8.60;;;;;;;15.29;19.97;103002.98;106641;1257;73739;-66
2022/03/21 11:37:44;;;;;;;9.60;6.20;;;;;;;15.79;19.26;102998.88;106630;1257;59108;-65
2022/03/21 11:40:30;;;;;;;15.60;7.30;;;;;;;15.76;19.06;102993.63;107150;1251;59684;-65
2022/03/21 11:43:17;;;;;;;11.30;6.70;;;;;;;15.79;18.79;102995.02;107328;1251;73183;-65